createdAt,value
2018-02-05T00:01:35.149Z,11.33
2018-02-05T00:04:02.799Z,13.73
2018-02-05T00:06:30.366Z,13.80
2018-02-05T00:08:57.967Z,13.90
2018-02-05T00:11:25.534Z,13.57
2018-02-05T00:13:53.177Z,13.53
2018-02-05T00:16:20.739Z,13.30
2018-02-05T00:18:48.297Z,12.10
2018-02-05T00:21:16.665Z,13.20
2018-02-05T00:23:44.985Z,14.30
2018-02-05T00:26:12.582Z,14.17
2018-02-05T00:28:40.198Z,12.97
2018-02-05T00:31:07.758Z,13.53
2018-02-05T00:33:35.356Z,13.90
2018-02-05T00:36:02.916Z,14.30
2018-02-05T00:38:30.753Z,13.57
2018-02-05T00:40:58.614Z,12.53
2018-02-05T00:43:26.224Z,11.03
2018-02-05T00:45:53.794Z,12.50
2018-02-05T00:48:21.401Z,12.47
2018-02-05T00:50:49.105Z,12.83
2018-02-05T00:53:16.671Z,12.67
2018-02-05T00:55:44.294Z,11.93
2018-02-05T00:58:11.902Z,12.60
2018-02-05T01:00:39.579Z,12.87
2018-02-05T01:03:07.190Z,14.43
2018-02-05T01:05:34.796Z,14.23
2018-02-05T01:08:02.405Z,14.23
2018-02-05T01:10:29.988Z,14.13
2018-02-05T01:12:57.555Z,13.30
2018-02-05T01:15:25.172Z,15.17
2018-02-05T01:17:52.742Z,14.07
2018-02-05T01:20:20.311Z,13.67
2018-02-05T01:22:47.919Z,14.50
2018-02-05T01:25:15.486Z,14.23
2018-02-05T01:27:43.854Z,13.20
2018-02-05T01:30:11.420Z,12.93
2018-02-05T01:32:39.022Z,13.47
2018-02-05T01:35:06.590Z,12.87
2018-02-05T01:37:34.191Z,13.30
2018-02-05T01:40:01.769Z,11.47
2018-02-05T01:42:30.149Z,12.10
2018-02-05T01:44:58.483Z,12.53
2018-02-05T01:47:26.042Z,12.47
2018-02-05T01:49:53.692Z,12.10
2018-02-05T01:52:21.257Z,12.17
2018-02-05T01:54:48.859Z,10.93
2018-02-05T01:57:16.428Z,12.27
2018-02-05T01:59:44.789Z,12.00
2018-02-05T02:02:12.354Z,10.97
2018-02-05T02:04:39.956Z,12.60
2018-02-05T02:07:07.562Z,11.30
2018-02-05T02:09:35.157Z,10.83
2018-02-05T02:12:02.722Z,11.90
2018-02-05T02:14:31.198Z,10.33
2018-02-05T02:16:58.766Z,11.03
2018-02-05T02:19:26.338Z,10.20
2018-02-05T02:21:53.937Z,9.87
2018-02-05T02:24:21.493Z,9.27
2018-02-05T02:26:49.097Z,10.27
2018-02-05T02:29:16.655Z,10.50
2018-02-05T02:31:44.253Z,9.27
2018-02-05T02:34:11.822Z,9.70
2018-02-05T02:36:39.398Z,10.07
2018-02-05T02:39:07.006Z,10.90
2018-02-05T02:41:34.570Z,10.17
2018-02-05T02:44:02.174Z,10.13
2018-02-05T02:46:29.752Z,8.70
2018-02-05T02:48:57.381Z,9.97
2018-02-05T02:51:24.949Z,9.13
2018-02-05T02:53:52.518Z,9.73
2018-02-05T02:56:20.131Z,10.27
2018-02-05T02:58:47.693Z,8.73
2018-02-05T03:01:15.286Z,9.17
2018-02-05T03:03:42.859Z,9.03
2018-02-05T03:06:10.470Z,9.40
2018-02-05T03:08:38.838Z,11.07
2018-02-05T03:11:06.404Z,9.10
2018-02-05T03:13:34.027Z,9.60
2018-02-05T03:16:01.590Z,8.33
2018-02-05T03:18:29.194Z,9.50
2018-02-05T03:20:56.754Z,8.67
2018-02-05T03:23:25.134Z,9.03
2018-02-05T03:25:53.466Z,9.67
2018-02-05T03:28:21.071Z,9.87
2018-02-05T03:30:48.671Z,8.40
2018-02-05T03:33:16.278Z,9.87
2018-02-05T03:35:43.839Z,8.60
2018-02-05T03:38:11.441Z,9.37
2018-02-05T03:40:39.037Z,8.93
2018-02-05T03:43:06.658Z,8.20
2018-02-05T03:45:35.127Z,9.77
2018-02-05T03:48:02.694Z,10.00
2018-02-05T03:50:30.309Z,9.47
2018-02-05T03:52:57.865Z,10.43
2018-02-05T03:55:25.440Z,10.63
2018-02-05T03:57:53.059Z,10.17
2018-02-05T04:00:20.626Z,8.77
2018-02-05T04:02:48.321Z,9.70
2018-02-05T04:05:15.890Z,8.13
2018-02-05T04:07:43.463Z,8.87
2018-02-05T04:10:11.066Z,7.97
2018-02-05T04:12:38.663Z,8.67
2018-02-05T04:15:06.270Z,9.10
2018-02-05T04:17:33.874Z,7.83
2018-02-05T04:20:01.498Z,8.13
2018-02-05T04:22:29.072Z,8.73
2018-02-05T04:24:56.678Z,8.23
2018-02-05T04:27:24.234Z,9.77
2018-02-05T04:29:51.797Z,8.33
2018-02-05T04:32:19.429Z,8.10
2018-02-05T04:34:46.999Z,9.27
2018-02-05T04:37:14.565Z,7.83
2018-02-05T04:39:42.186Z,7.43
2018-02-05T04:42:10.593Z,8.07
2018-02-05T04:44:38.185Z,8.20
2018-02-05T04:47:05.751Z,7.83
2018-02-05T04:49:33.362Z,8.90
2018-02-05T04:52:00.926Z,8.10
2018-02-05T04:54:28.515Z,8.27
2018-02-05T04:56:56.232Z,8.67
2018-02-05T04:59:24.593Z,8.43
2018-02-05T05:01:52.989Z,9.20
2018-02-05T05:04:21.425Z,8.00
2018-02-05T05:06:49.032Z,7.07
2018-02-05T05:09:16.782Z,7.90
2018-02-05T05:11:44.381Z,7.07
2018-02-05T05:14:11.958Z,7.37
2018-02-05T05:16:39.554Z,9.47
2018-02-05T05:19:07.194Z,8.50
2018-02-05T05:21:34.806Z,8.07
2018-02-05T05:24:03.133Z,7.00
2018-02-05T05:26:30.686Z,7.40
2018-02-05T05:28:58.289Z,8.60
2018-02-05T05:31:25.851Z,8.73
2018-02-05T05:33:54.220Z,8.37
2018-02-05T05:36:21.783Z,8.23
2018-02-05T05:38:49.396Z,8.13
2018-02-05T05:41:16.958Z,8.67
2018-02-05T05:43:44.588Z,8.57
2018-02-05T05:46:12.154Z,8.00
2018-02-05T05:48:39.761Z,10.30
2018-02-05T05:51:07.373Z,8.87
2018-02-05T05:53:35.711Z,9.30
2018-02-05T05:56:03.310Z,8.70
2018-02-05T05:58:30.911Z,9.00
2018-02-05T06:00:58.673Z,10.90
2018-02-05T06:03:26.329Z,11.57
2018-02-05T06:05:53.900Z,11.17
2018-02-05T06:08:21.568Z,9.60
2018-02-05T06:10:49.384Z,9.60
2018-02-05T06:13:16.994Z,10.23
2018-02-05T06:15:44.646Z,11.07
2018-02-05T06:18:12.306Z,10.13
2018-02-05T06:20:39.936Z,10.93
2018-02-05T06:23:08.308Z,11.40
2018-02-05T06:25:36.647Z,10.50
2018-02-05T06:28:04.284Z,9.97
2018-02-05T06:30:32.138Z,10.13
2018-02-05T06:32:59.759Z,10.57
2018-02-05T06:35:27.335Z,9.60
2018-02-05T06:37:54.968Z,8.63
2018-02-05T06:40:22.606Z,8.33
2018-02-05T06:42:50.172Z,8.30
2018-02-05T06:45:17.740Z,8.40
2018-02-05T06:47:45.352Z,8.30
2018-02-05T06:50:25.356Z,8.17
2018-02-05T06:53:04.758Z,9.00
2018-02-05T06:55:44.222Z,8.80
2018-02-05T06:58:11.865Z,8.47
2018-02-05T07:00:39.660Z,9.13
2018-02-05T07:03:07.234Z,8.97
2018-02-05T07:05:34.842Z,8.80
2018-02-05T07:08:02.416Z,10.33
2018-02-05T07:10:30.120Z,10.80
2018-02-05T07:12:57.963Z,11.27
2018-02-05T07:15:25.588Z,10.17
2018-02-05T07:17:53.213Z,9.90
2018-02-05T07:20:20.822Z,10.23
2018-02-05T07:22:48.387Z,9.03
2018-02-05T07:25:16.458Z,10.13
2018-02-05T07:27:44.065Z,10.50
2018-02-05T07:30:11.651Z,10.37
2018-02-05T07:32:39.404Z,9.43
2018-02-05T07:35:07.046Z,12.97
2018-02-05T07:37:34.650Z,12.30
2018-02-05T07:40:02.566Z,11.53
2018-02-05T07:42:30.199Z,10.07
2018-02-05T07:44:57.769Z,12.27
2018-02-05T07:47:25.650Z,10.03
2018-02-05T07:49:53.303Z,11.30
2018-02-05T07:52:21.131Z,10.00
2018-02-05T07:54:48.745Z,11.50
2018-02-05T07:57:16.345Z,10.13
2018-02-05T07:59:43.951Z,12.17
2018-02-05T08:02:11.543Z,10.63
2018-02-05T08:04:39.166Z,11.20
2018-02-05T08:07:06.925Z,10.90
2018-02-05T08:09:34.490Z,9.27
2018-02-05T08:12:02.196Z,9.57
2018-02-05T08:14:29.990Z,9.33
2018-02-05T08:16:58.359Z,9.07
2018-02-05T08:19:26.731Z,8.77
2018-02-05T08:21:54.347Z,7.87
2018-02-05T08:24:21.957Z,8.77
2018-02-05T08:26:49.533Z,8.47
2018-02-05T08:29:17.298Z,7.67
2018-02-05T08:31:45.726Z,9.33
2018-02-05T08:34:13.349Z,7.73
2018-02-05T08:36:41.922Z,7.67
2018-02-05T08:39:09.528Z,8.30
2018-02-05T08:41:39.920Z,8.70
2018-02-05T08:44:08.483Z,7.30
2018-02-05T08:46:36.061Z,8.23
2018-02-05T08:49:03.687Z,7.63
2018-02-05T08:51:31.399Z,7.70
2018-02-05T08:53:59.725Z,7.00
2018-02-05T08:56:27.319Z,7.90
2018-02-05T08:58:54.882Z,7.87
2018-02-05T09:01:22.647Z,7.20
2018-02-05T09:03:50.259Z,7.27
2018-02-05T09:06:17.870Z,7.23
2018-02-05T09:08:45.430Z,7.27
2018-02-05T09:11:13.816Z,6.90
2018-02-05T09:13:42.150Z,7.00
2018-02-05T09:16:09.713Z,7.17
2018-02-05T09:18:37.316Z,7.07
2018-02-05T09:21:05.775Z,6.80
2018-02-05T09:23:33.729Z,7.83
2018-02-05T09:26:01.358Z,7.80
2018-02-05T09:28:28.922Z,6.93
2018-02-05T09:30:56.489Z,7.37
2018-02-05T09:33:24.187Z,6.50
2018-02-05T09:35:51.758Z,6.70
2018-02-05T09:38:19.404Z,5.67
2018-02-05T09:40:47.058Z,6.13
2018-02-05T09:43:14.682Z,6.97
2018-02-05T09:45:44.363Z,5.90
2018-02-05T09:48:12.730Z,8.10
2018-02-05T09:50:40.330Z,6.60
2018-02-05T09:53:07.949Z,7.10
2018-02-05T09:55:35.504Z,6.53
2018-02-05T09:58:03.078Z,6.63
2018-02-05T10:00:30.882Z,6.47
2018-02-05T10:02:58.500Z,6.37
2018-02-05T10:05:26.099Z,7.60
2018-02-05T10:07:53.659Z,5.73
2018-02-05T10:10:21.258Z,6.27
2018-02-05T10:12:48.922Z,6.30
2018-02-05T10:15:16.538Z,5.30
2018-02-05T10:17:44.098Z,6.17
2018-02-05T10:20:12.488Z,5.97
2018-02-05T10:22:40.074Z,5.43
2018-02-05T10:25:07.634Z,6.70
2018-02-05T10:27:35.345Z,6.50
2018-02-05T10:30:02.949Z,6.00
2018-02-05T10:32:30.566Z,5.70
2018-02-05T10:34:58.142Z,6.40
2018-02-05T10:37:26.546Z,5.93
2018-02-05T10:39:54.109Z,6.33
2018-02-05T10:42:21.738Z,6.50
2018-02-05T10:44:50.131Z,7.73
2018-02-05T10:47:17.754Z,7.27
2018-02-05T10:49:45.358Z,8.00
2018-02-05T10:52:12.961Z,7.10
2018-02-05T10:54:41.432Z,9.83
2018-02-05T10:57:09.073Z,8.33
2018-02-05T10:59:36.674Z,9.47
2018-02-05T11:02:04.267Z,8.87
2018-02-05T11:04:31.943Z,8.53
2018-02-05T11:06:59.515Z,7.23
2018-02-05T11:09:27.135Z,8.23
2018-02-05T11:11:54.700Z,7.77
2018-02-05T11:14:22.257Z,7.17
2018-02-05T11:16:49.857Z,6.13
2018-02-05T11:19:18.147Z,5.37
2018-02-05T11:21:45.787Z,5.90
2018-02-05T11:24:13.345Z,4.97
2018-02-05T11:26:40.910Z,6.23
2018-02-05T11:29:08.506Z,5.93
2018-02-05T11:31:36.120Z,5.70
2018-02-05T11:34:04.493Z,6.37
2018-02-05T11:36:32.838Z,6.30
2018-02-05T11:39:00.407Z,8.63
2018-02-05T11:41:28.010Z,10.13
2018-02-05T11:43:55.574Z,20.77
2018-02-05T11:46:23.181Z,8.80
2018-02-05T11:48:50.855Z,8.03
2018-02-05T11:51:18.453Z,7.93
2018-02-05T11:53:46.059Z,7.17
2018-02-05T11:56:13.679Z,8.50
2018-02-05T11:58:41.302Z,7.70
2018-02-05T12:01:08.898Z,8.50
2018-02-05T12:03:36.462Z,8.30
2018-02-05T12:06:04.063Z,8.13
2018-02-05T12:08:31.693Z,7.70
2018-02-05T12:10:59.310Z,8.43
2018-02-05T12:13:26.890Z,8.10
2018-02-05T12:15:55.258Z,7.97
2018-02-05T12:18:22.822Z,7.43
2018-02-05T12:20:50.500Z,7.07
2018-02-05T12:23:18.852Z,7.03
2018-02-05T12:25:46.457Z,6.70
2018-02-05T12:28:14.027Z,6.90
2018-02-05T12:30:41.587Z,6.13
2018-02-05T12:33:09.187Z,5.93
2018-02-05T12:35:36.754Z,6.40
2018-02-05T12:38:04.354Z,6.70
2018-02-05T12:40:31.935Z,6.13
2018-02-05T12:42:59.537Z,6.27
2018-02-05T12:45:27.098Z,5.60
2018-02-05T12:47:54.764Z,5.27
2018-02-05T12:50:22.415Z,6.20
2018-02-05T12:52:49.985Z,6.13
2018-02-05T12:55:17.624Z,6.53
2018-02-05T12:57:45.298Z,6.37
2018-02-05T13:03:19.194Z,6.03
2018-02-05T13:06:05.505Z,6.80
2018-02-05T13:08:33.108Z,7.60
2018-02-05T13:11:00.679Z,6.97
2018-02-05T13:13:28.365Z,5.97
2018-02-05T13:15:55.966Z,13.00
2018-02-05T13:18:23.663Z,7.10
2018-02-05T13:20:51.267Z,5.93
2018-02-05T13:23:18.826Z,6.43
2018-02-05T13:25:46.431Z,6.20
2018-02-05T13:28:14.004Z,6.67
2018-02-05T13:30:41.598Z,6.17
2018-02-05T13:33:09.158Z,5.17
2018-02-05T13:35:36.774Z,5.40
2018-02-05T13:38:04.336Z,5.53
2018-02-05T13:40:31.914Z,5.90
2018-02-05T13:42:59.997Z,5.90
2018-02-05T13:45:27.597Z,6.40
2018-02-05T13:47:55.182Z,6.03
2018-02-05T13:50:22.796Z,6.77
2018-02-05T13:52:50.354Z,6.20
2018-02-05T13:55:17.919Z,5.93
2018-02-05T13:57:45.555Z,5.80
2018-02-05T14:00:13.148Z,6.43
2018-02-05T14:02:40.745Z,8.33
2018-02-05T14:05:08.299Z,7.37
2018-02-05T14:07:35.889Z,7.03
2018-02-05T14:10:03.454Z,7.10
2018-02-05T14:12:31.820Z,7.30
2018-02-05T14:15:00.183Z,10.23
2018-02-05T14:17:27.809Z,11.53
2018-02-05T14:19:55.410Z,9.07
2018-02-05T14:22:23.096Z,12.07
2018-02-05T14:24:50.667Z,8.57
2018-02-05T14:27:19.013Z,8.17
2018-02-05T14:29:46.613Z,9.60
2018-02-05T14:32:14.209Z,12.97
2018-02-05T14:34:41.872Z,10.40
2018-02-05T14:37:09.475Z,7.27
2018-02-05T14:39:37.050Z,10.80
2018-02-05T14:42:04.674Z,7.37
2018-02-05T14:44:32.277Z,11.30
2018-02-05T14:46:59.894Z,9.77
2018-02-05T14:49:27.464Z,9.33
2018-02-05T14:51:55.031Z,9.87
2018-02-05T14:54:22.633Z,8.13
2018-02-05T14:56:51.005Z,12.90
2018-02-05T14:59:19.338Z,9.57
2018-02-05T15:01:46.947Z,7.83
2018-02-05T15:04:14.581Z,8.33
2018-02-05T15:06:42.140Z,8.23
2018-02-05T15:09:09.711Z,8.10
2018-02-05T15:11:37.354Z,9.77
2018-02-05T15:14:04.935Z,7.40
2018-02-05T15:16:32.578Z,9.40
2018-02-05T15:19:00.183Z,7.53
2018-02-05T15:21:27.747Z,8.33
2018-02-05T15:23:55.558Z,6.23
2018-02-05T15:26:23.122Z,7.03
2018-02-05T15:28:50.721Z,8.17
2018-02-05T15:31:19.113Z,7.93
2018-02-05T15:33:46.898Z,7.97
2018-02-05T15:36:14.468Z,7.70
2018-02-05T15:38:42.148Z,9.10
2018-02-05T15:41:09.790Z,8.37
2018-02-05T15:43:37.401Z,8.40
2018-02-05T15:46:04.966Z,8.00
2018-02-05T15:48:32.539Z,12.67
2018-02-05T15:51:00.922Z,7.87
2018-02-05T15:53:29.252Z,8.67
2018-02-05T15:55:56.838Z,8.97
2018-02-05T15:58:24.447Z,7.57
2018-02-05T16:00:52.052Z,6.80
2018-02-05T16:03:19.656Z,8.43
2018-02-05T16:05:47.209Z,7.47
2018-02-05T16:08:15.594Z,8.23
2018-02-05T16:10:43.162Z,7.77
2018-02-05T16:13:10.770Z,8.20
2018-02-05T16:15:38.334Z,7.63
2018-02-05T16:18:05.958Z,6.23
2018-02-05T16:20:33.513Z,6.73
2018-02-05T16:23:01.133Z,9.10
2018-02-05T16:25:28.734Z,8.67
2018-02-05T16:27:56.303Z,7.80
2018-02-05T16:30:23.905Z,6.97
2018-02-05T16:32:51.502Z,7.20
2018-02-05T16:35:19.121Z,7.80
2018-02-05T16:37:46.682Z,7.57
2018-02-05T16:40:14.249Z,7.83
2018-02-05T16:42:41.843Z,8.70
2018-02-05T16:45:09.446Z,8.40
2018-02-05T16:47:37.066Z,8.63
2018-02-05T16:50:04.622Z,9.30
2018-02-05T16:52:32.201Z,9.67
2018-02-05T16:54:59.806Z,9.37
2018-02-05T16:57:27.383Z,8.13
2018-02-05T16:59:55.064Z,8.80
2018-02-05T17:02:22.674Z,8.70
2018-02-05T17:04:50.318Z,10.30
2018-02-05T17:07:17.918Z,11.03
2018-02-05T17:09:45.518Z,10.03
2018-02-05T17:12:13.150Z,9.37
2018-02-05T17:14:41.645Z,9.33
2018-02-05T17:17:09.395Z,9.63
2018-02-05T17:19:36.977Z,10.60
2018-02-05T17:22:04.608Z,10.67
2018-02-05T17:24:32.249Z,11.53
2018-02-05T17:26:59.858Z,12.53
2018-02-05T17:29:27.525Z,10.47
2018-02-05T17:31:56.015Z,10.77
2018-02-05T17:34:23.637Z,11.67
2018-02-05T17:36:51.278Z,12.43
2018-02-05T17:39:18.909Z,11.47
2018-02-05T17:41:46.498Z,11.27
2018-02-05T17:44:14.077Z,11.90
2018-02-05T17:46:41.712Z,10.93
2018-02-05T17:49:09.283Z,11.00
2018-02-05T17:51:36.890Z,11.07
2018-02-05T17:54:04.466Z,10.77
2018-02-05T17:56:32.126Z,11.43
2018-02-05T17:58:59.706Z,11.40
2018-02-05T18:01:27.321Z,12.13
2018-02-05T18:03:54.935Z,11.90
2018-02-05T18:06:22.567Z,11.73
2018-02-05T18:08:50.174Z,11.27
2018-02-05T18:11:17.778Z,11.40
2018-02-05T18:13:45.402Z,12.33
2018-02-05T18:16:13.006Z,11.83
2018-02-05T18:18:40.622Z,11.17
2018-02-05T18:21:08.237Z,12.07
2018-02-05T18:23:35.804Z,12.33
2018-02-05T18:26:03.418Z,12.27
2018-02-05T18:28:30.987Z,12.53
2018-02-05T18:30:58.649Z,12.23
2018-02-05T18:33:26.253Z,11.60
2018-02-05T18:35:53.879Z,11.97
2018-02-05T18:38:21.470Z,12.63
2018-02-05T18:40:49.087Z,11.97
2018-02-05T18:43:16.750Z,11.53
2018-02-05T18:45:44.296Z,11.27
2018-02-05T18:48:11.910Z,11.37
2018-02-05T18:50:39.617Z,11.87
2018-02-05T18:53:07.189Z,14.13
2018-02-05T18:55:34.785Z,12.37
2018-02-05T18:58:03.255Z,13.23
2018-02-05T19:00:42.643Z,14.13
2018-02-05T19:03:10.290Z,13.23
2018-02-05T19:05:38.623Z,13.57
2018-02-05T19:08:06.238Z,13.73
2018-02-05T19:10:33.818Z,14.50
2018-02-05T19:13:01.454Z,14.53
2018-02-05T19:15:29.029Z,14.77
2018-02-05T19:17:56.918Z,14.73
2018-02-05T19:20:24.561Z,14.63
2018-02-05T19:22:52.195Z,14.63
2018-02-05T19:25:20.018Z,14.60
2018-02-05T19:27:47.639Z,15.17
2018-02-05T19:30:15.247Z,16.37
2018-02-05T19:32:42.884Z,16.00
2018-02-05T19:35:10.522Z,14.43
2018-02-05T19:37:38.121Z,14.63
2018-02-05T19:40:05.722Z,14.10
2018-02-05T19:42:33.373Z,16.57
2018-02-05T19:45:00.934Z,18.37
2018-02-05T19:47:28.510Z,13.50
2018-02-05T19:49:56.909Z,14.00
2018-02-05T19:52:24.517Z,16.77
2018-02-05T19:54:52.199Z,15.77
2018-02-05T19:57:19.775Z,16.03
2018-02-05T19:59:47.390Z,15.43
2018-02-05T20:02:14.986Z,16.03
2018-02-05T20:04:42.604Z,14.57
2018-02-05T20:07:10.214Z,15.23
2018-02-05T20:09:37.906Z,15.37
2018-02-05T20:12:05.563Z,17.07
2018-02-05T20:14:33.946Z,16.20
2018-02-05T20:17:01.533Z,17.03
2018-02-05T20:19:29.133Z,16.83
2018-02-05T20:21:56.738Z,15.73
2018-02-05T20:24:24.317Z,15.20
2018-02-05T20:26:51.917Z,16.40
2018-02-05T20:29:19.511Z,16.77
2018-02-05T20:31:47.123Z,16.37
2018-02-05T20:34:14.815Z,15.10
2018-02-05T20:36:43.246Z,15.83
2018-02-05T20:39:10.889Z,16.60
2018-02-05T20:41:38.472Z,15.47
2018-02-05T20:44:06.083Z,14.17
2018-02-05T20:46:33.658Z,15.53
2018-02-05T20:49:02.043Z,15.00
2018-02-05T20:51:29.626Z,16.33
2018-02-05T20:53:57.237Z,15.20
2018-02-05T20:56:24.895Z,15.80
2018-02-05T20:58:52.477Z,15.13
2018-02-05T21:01:20.087Z,15.20
2018-02-05T21:03:47.700Z,14.63
2018-02-05T21:06:16.080Z,15.07
2018-02-05T21:08:44.443Z,17.10
2018-02-05T21:11:12.034Z,15.43
2018-02-05T21:13:39.638Z,14.83
2018-02-05T21:16:07.253Z,15.27
2018-02-05T21:18:34.866Z,14.90
2018-02-05T21:21:02.546Z,14.70
2018-02-05T21:23:30.156Z,15.97
2018-02-05T21:25:57.745Z,15.07
2018-02-05T21:28:25.375Z,14.83
2018-02-05T21:30:52.994Z,15.10
2018-02-05T21:33:20.593Z,16.70
2018-02-05T21:35:48.165Z,15.63
2018-02-05T21:38:15.794Z,16.20
2018-02-05T21:40:44.146Z,15.93
2018-02-05T21:43:11.753Z,14.20
2018-02-05T21:45:39.368Z,15.10
2018-02-05T21:48:07.007Z,16.00
2018-02-05T21:50:34.580Z,16.27
2018-02-05T21:53:02.200Z,15.43
2018-02-05T21:55:29.831Z,16.53
2018-02-05T21:57:58.233Z,17.90
2018-02-05T22:00:26.766Z,18.73
2018-02-05T22:02:54.347Z,22.23
2018-02-05T22:05:21.960Z,19.43
2018-02-05T22:07:49.589Z,19.83
2018-02-05T22:10:17.936Z,19.87
2018-02-05T22:12:45.518Z,21.50
2018-02-05T22:15:13.134Z,19.67
2018-02-05T22:17:40.705Z,18.13
2018-02-05T22:20:08.360Z,18.90
2018-02-05T22:22:35.953Z,18.27
2018-02-05T22:25:03.534Z,18.53
2018-02-05T22:27:31.140Z,19.33
2018-02-05T22:29:58.714Z,17.27
2018-02-05T22:32:26.322Z,18.03
2018-02-05T22:34:54.707Z,18.77
2018-02-05T22:37:22.334Z,18.97
2018-02-05T22:39:49.911Z,20.17
2018-02-05T22:42:18.390Z,19.07
2018-02-05T22:44:46.892Z,19.53
2018-02-05T22:47:14.480Z,19.07
2018-02-05T22:49:42.090Z,18.67
2018-02-05T22:52:09.666Z,18.63
2018-02-05T22:54:38.045Z,21.03
2018-02-05T22:57:06.386Z,18.30
2018-02-05T22:59:34.010Z,20.50
2018-02-05T23:02:01.667Z,20.93
2018-02-05T23:04:29.242Z,19.37
2018-02-05T23:06:56.857Z,20.33
2018-02-05T23:09:24.475Z,17.03
2018-02-05T23:11:52.094Z,18.77
2018-02-05T23:14:20.429Z,20.50
2018-02-05T23:16:48.015Z,19.33
2018-02-05T23:19:15.635Z,19.07
2018-02-05T23:21:43.203Z,17.90
2018-02-05T23:24:10.816Z,18.83
2018-02-05T23:26:38.390Z,18.43
2018-02-05T23:29:07.160Z,17.40
2018-02-05T23:31:35.100Z,18.60
2018-02-05T23:34:02.698Z,16.53
2018-02-05T23:36:30.311Z,18.90
2018-02-05T23:38:58.490Z,17.87
2018-02-05T23:41:26.835Z,18.83
2018-02-05T23:43:54.851Z,18.63
2018-02-05T23:46:22.653Z,18.40
2018-02-05T23:48:50.291Z,17.77
2018-02-05T23:51:17.907Z,16.57
2018-02-05T23:53:45.710Z,18.90
2018-02-05T23:56:13.648Z,17.93
2018-02-05T23:58:41.289Z,19.07
